Time;durP1;ratioP1;P1;durP2;ratioP2;P2;SDS_P1;SDS_P2;PMS_P1;PMS_P2;Temp;Humidity;BMP_temperature;BMP_pressure;BME280_temperature;BME280_humidity;BME280_pressure;Samples;Min_cycle;Max_cycle;Signal;HPM_P1;HPM_P2
2022/06/16 00:03:13;;;;;;;;;;;16.80;1.00;;;;;;10129254;28;87209;-57
2022/06/16 00:08:16;;;;;;;;;;;16.70;99.90;;;;;;10130075;28;84755;-53
2022/06/16 00:13:16;;;;;;;;;;;16.70;99.90;;;;;;10144156;28;87301;-51
2022/06/16 00:18:17;;;;;;;;;;;16.50;98.20;;;;;;10147193;28;84959;-57
2022/06/16 00:23:18;;;;;;;;;;;16.50;99.90;;;;;;10203505;23;86981;-54
2022/06/16 00:28:18;;;;;;;;;;;16.40;99.90;;;;;;10206759;28;84979;-55
2022/06/16 00:33:21;;;;;;;;;;;16.30;1.00;;;;;;10181462;28;87105;-52
2022/06/16 00:38:23;;;;;;;;;;;16.30;1.00;;;;;;10166872;28;84796;-56
2022/06/16 00:43:24;;;;;;;;;;;16.30;1.00;;;;;;10168452;28;84192;-57
2022/06/16 00:48:39;;;;;;;;;;;16.20;1.00;;;;;;10168149;28;84546;-57
2022/06/16 00:53:40;;;;;;;;;;;16.20;1.00;;;;;;10172205;28;86028;-58
2022/06/16 00:58:41;;;;;;;;;;;16.20;1.00;;;;;;10167085;28;85009;-58
2022/06/16 01:09:10;;;;;;;;;;;16.20;99.90;;;;;;10159937;28;84417;-58
2022/06/16 01:14:18;;;;;;;;;;;16.00;99.90;;;;;;10166675;28;84275;-58
2022/06/16 01:19:34;;;;;;;;;;;16.00;99.90;;;;;;10149797;28;84744;-56
2022/06/16 01:24:53;;;;;;;;;;;15.90;99.90;;;;;;10180538;28;87248;-59
2022/06/16 01:30:05;;;;;;;;;;;16.00;99.90;;;;;;10164694;28;86671;-57
2022/06/16 01:35:46;;;;;;;;;;;15.90;1.00;;;;;;10164860;28;84859;-57
2022/06/16 01:40:55;;;;;;;;;;;15.80;1.00;;;;;;10085786;28;87003;-58
2022/06/16 01:46:02;;;;;;;;;;;15.70;1.00;;;;;;10144464;28;86964;-58
2022/06/16 01:51:10;;;;;;;;;;;15.80;1.00;;;;;;10165078;28;85962;-55
2022/06/16 01:56:29;;;;;;;;;;;15.80;1.00;;;;;;10164746;28;86812;-58
2022/06/16 02:01:35;;;;;;;;;;;15.90;99.90;;;;;;10164271;28;86953;-56
2022/06/16 02:06:38;;;;;;;;;;;15.80;99.90;;;;;;10163241;28;85169;-58
2022/06/16 02:11:41;;;;;;;;;;;15.70;1.00;;;;;;10171675;28;85981;-59
2022/06/16 02:16:52;;;;;;;;;;;15.70;99.90;;;;;;10164258;28;85038;-57
2022/06/16 02:21:55;;;;;;;;;;;15.60;1.00;;;;;;10163246;28;86663;-59
2022/06/16 02:26:58;;;;;;;;;;;15.50;99.90;;;;;;10168208;28;85669;-59
2022/06/16 02:32:08;;;;;;;;;;;15.50;1.00;;;;;;10187175;28;85379;-57
2022/06/16 02:37:21;;;;;;;;;;;15.40;1.00;;;;;;10171862;28;85959;-58
2022/06/16 02:42:28;;;;;;;;;;;15.40;99.90;;;;;;10171646;28;87131;-59
2022/06/16 02:47:45;;;;;;;;;;;15.40;1.00;;;;;;10172721;28;84931;-59
2022/06/16 02:52:51;;;;;;;;;;;15.30;99.80;;;;;;10174529;28;86810;-59
2022/06/16 02:57:54;;;;;;;;;;;15.20;1.00;;;;;;10165886;28;86098;-58
2022/06/16 03:03:16;;;;;;;;;;;15.20;1.00;;;;;;10163381;28;86604;-60
2022/06/16 03:08:18;;;;;;;;;;;15.10;1.00;;;;;;10155047;28;86583;-58
2022/06/16 03:13:23;;;;;;;;;;;15.10;88.60;;;;;;10176476;28;85772;-58
2022/06/16 03:18:24;;;;;;;;;;;15.00;99.90;;;;;;10174683;28;84246;-59
2022/06/16 03:23:25;;;;;;;;;;;14.90;1.00;;;;;;10171365;28;84584;-59
2022/06/16 03:28:27;;;;;;;;;;;14.80;1.00;;;;;;10154380;28;84107;-58
2022/06/16 03:33:29;;;;;;;;;;;14.90;1.00;;;;;;10167538;28;86713;-58
2022/06/16 03:43:42;;;;;;;;;;;14.70;1.00;;;;;;10180870;28;85797;-60
2022/06/16 03:48:52;;;;;;;;;;;14.60;1.00;;;;;;10167490;28;86802;-57
2022/06/16 03:54:04;;;;;;;;;;;14.50;99.90;;;;;;10168998;28;84989;-58
2022/06/16 03:59:06;;;;;;;;;;;14.50;99.90;;;;;;10180096;28;85959;-58
2022/06/16 04:04:08;;;;;;;;;;;14.40;99.90;;;;;;10183684;28;84863;-58
2022/06/16 04:09:21;;;;;;;;;;;14.40;1.00;;;;;;10173681;28;86475;-57
2022/06/16 04:14:23;;;;;;;;;;;14.40;1.00;;;;;;10167925;28;85957;-57
2022/06/16 04:20:11;;;;;;;;;;;14.50;1.00;;;;;;10167490;28;85141;-57
2022/06/16 04:24:57;;;;;;;;;;;14.60;1.00;;;;;;10166873;28;85974;-58
2022/06/16 04:29:59;;;;;;;;;;;14.60;1.00;;;;;;10166637;28;86260;-58
2022/06/16 04:34:59;;;;;;;;;;;14.60;1.00;;;;;;10166462;28;86024;-58
2022/06/16 04:40:08;;;;;;;;;;;14.60;1.00;;;;;;10165269;28;86084;-60
2022/06/16 04:45:11;;;;;;;;;;;14.60;1.00;;;;;;10167228;28;84288;-59
2022/06/16 04:50:14;;;;;;;;;;;14.70;1.00;;;;;;10162574;28;86887;-58
2022/06/16 04:55:15;;;;;;;;;;;14.70;1.00;;;;;;10168512;28;84291;-57
2022/06/16 05:00:48;;;;;;;;;;;14.90;1.00;;;;;;10166814;28;84342;-58
2022/06/16 05:06:03;;;;;;;;;;;15.00;1.00;;;;;;10164417;28;85951;-56
2022/06/16 05:11:24;;;;;;;;;;;15.00;1.00;;;;;;10184424;28;85609;-58
2022/06/16 05:16:43;;;;;;;;;;;15.00;1.00;;;;;;10184815;28;84244;-57
2022/06/16 05:21:50;;;;;;;;;;;14.90;1.00;;;;;;10180954;28;86007;-58
2022/06/16 05:27:09;;;;;;;;;;;15.00;1.00;;;;;;10184643;28;84070;-57
2022/06/16 05:32:32;;;;;;;;;;;15.10;1.00;;;;;;10181056;28;84902;-58
2022/06/16 05:37:43;;;;;;;;;;;15.20;1.00;;;;;;10176550;28;84138;-56
2022/06/16 05:43:15;;;;;;;;;;;15.20;1.00;;;;;;10158696;28;84500;-59
2022/06/16 05:48:34;;;;;;;;;;;15.30;1.00;;;;;;10183243;28;84101;-58
2022/06/16 05:53:39;;;;;;;;;;;15.40;1.00;;;;;;10183339;28;85704;-60
2022/06/16 05:58:41;;;;;;;;;;;15.50;1.00;;;;;;10177750;28;86011;-60
2022/06/16 06:03:42;;;;;;;;;;;15.40;1.00;;;;;;10179784;28;86443;-59
2022/06/16 06:19:26;;;;;;;;;;;15.60;1.00;;;;;;10180534;28;86076;-55
2022/06/16 06:24:28;;;;;;;;;;;15.90;1.00;;;;;;10227939;23;86996;-52
2022/06/16 06:29:29;;;;;;;;;;;16.10;1.00;;;;;;10223167;28;86665;-55
2022/06/16 06:34:32;;;;;;;;;;;16.30;1.00;;;;;;10241250;28;86785;-55
2022/06/16 06:39:33;;;;;;;;;;;16.30;1.00;;;;;;10244486;28;86609;-50
2022/06/16 06:44:34;;;;;;;;;;;16.60;1.00;;;;;;10241950;28;84119;-49
2022/06/16 06:49:35;;;;;;;;;;;16.90;99.90;;;;;;10199380;28;84774;-57
2022/06/16 06:54:36;;;;;;;;;;;17.20;94.80;;;;;;10198770;28;84325;-54
2022/06/16 06:59:36;;;;;;;;;;;17.40;1.00;;;;;;10208061;28;84921;-50
2022/06/16 07:04:37;;;;;;;;;;;17.50;1.00;;;;;;10202029;28;84804;-49
2022/06/16 07:09:38;;;;;;;;;;;17.90;99.90;;;;;;10204082;28;84696;-49
2022/06/16 07:14:39;;;;;;;;;;;18.30;1.00;;;;;;10209675;28;84054;-50
2022/06/16 07:19:39;;;;;;;;;;;18.90;99.90;;;;;;10209107;28;85848;-53
2022/06/16 07:24:40;;;;;;;;;;;19.20;1.00;;;;;;10209973;28;84115;-52
2022/06/16 07:29:41;;;;;;;;;;;19.40;1.00;;;;;;10205620;28;85143;-52
2022/06/16 07:34:41;;;;;;;;;;;20.00;1.00;;;;;;10209435;28;84985;-49
2022/06/16 07:39:42;;;;;;;;;;;20.50;1.00;;;;;;10201777;28;84950;-57
2022/06/16 07:44:43;;;;;;;;;;;21.10;1.00;;;;;;10204784;28;86231;-51
2022/06/16 07:49:43;;;;;;;;;;;21.70;1.00;;;;;;10204303;28;84813;-59
2022/06/16 07:54:44;;;;;;;;;;;21.80;1.00;;;;;;10205121;28;84213;-57
2022/06/16 07:59:48;;;;;;;;;;;22.20;1.00;;;;;;10205730;28;85109;-61
2022/06/16 08:04:49;;;;;;;;;;;23.00;1.00;;;;;;10203317;28;85397;-57
2022/06/16 08:09:49;;;;;;;;;;;23.80;16.60;;;;;;10209538;28;84220;-61
2022/06/16 08:14:50;;;;;;;;;;;24.00;1.00;;;;;;10204219;28;84814;-57
2022/06/16 08:19:51;;;;;;;;;;;24.20;1.00;;;;;;10201675;28;84156;-58
2022/06/16 08:24:52;;;;;;;;;;;24.20;99.90;;;;;;10198003;28;84999;-53
2022/06/16 08:29:52;;;;;;;;;;;24.70;99.90;;;;;;10206504;28;85785;-53
2022/06/16 08:34:53;;;;;;;;;;;24.80;99.90;;;;;;10197658;28;84257;-56
2022/06/16 08:39:53;;;;;;;;;;;25.40;12.40;;;;;;10201828;28;84491;-60
2022/06/16 08:45:13;;;;;;;;;;;25.40;1.00;;;;;;10201823;28;84935;-57
2022/06/16 08:50:23;;;;;;;;;;;25.40;1.00;;;;;;10202884;28;85233;-60
2022/06/16 08:55:29;;;;;;;;;;;26.00;1.00;;;;;;10202983;28;85789;-58
2022/06/16 09:00:32;;;;;;;;;;;26.00;1.00;;;;;;10201437;28;84978;-54
2022/06/16 09:05:40;;;;;;;;;;;26.50;1.00;;;;;;10200282;28;85133;-53
2022/06/16 09:10:50;;;;;;;;;;;26.50;1.00;;;;;;10203325;28;84871;-55
2022/06/16 09:16:28;;;;;;;;;;;26.80;1.00;;;;;;10208628;28;86781;-54
2022/06/16 09:21:40;;;;;;;;;;;27.30;1.00;;;;;;10179212;28;86095;-55
2022/06/16 09:26:58;;;;;;;;;;;28.00;1.00;;;;;;10202190;28;85389;-49
2022/06/16 09:32:17;;;;;;;;;;;28.10;1.00;;;;;;10202779;28;84077;-51
2022/06/16 09:37:21;;;;;;;;;;;28.20;1.00;;;;;;10200405;28;84917;-55
2022/06/16 09:42:34;;;;;;;;;;;28.50;1.00;;;;;;10197227;28;84502;-54
2022/06/16 09:47:39;;;;;;;;;;;29.40;1.00;;;;;;10198994;28;84129;-57
2022/06/16 09:52:49;;;;;;;;;;;29.70;1.00;;;;;;10199745;28;84976;-53
2022/06/16 09:57:54;;;;;;;;;;;30.00;1.00;;;;;;10199422;28;84884;-52
2022/06/16 10:02:56;;;;;;;;;;;29.60;1.00;;;;;;10196589;28;85028;-54
2022/06/16 10:08:00;;;;;;;;;;;29.90;1.00;;;;;;10208596;28;85212;-58
2022/06/16 10:13:12;;;;;;;;;;;29.90;1.00;;;;;;10196035;28;84836;-55
2022/06/16 10:18:14;;;;;;;;;;;30.60;1.00;;;;;;10197287;28;85978;-54
2022/06/16 10:23:20;;;;;;;;;;;30.70;1.00;;;;;;10190817;28;85029;-62
2022/06/16 10:28:33;;;;;;;;;;;30.40;1.00;;;;;;10197222;28;84199;-62
2022/06/16 10:33:35;;;;;;;;;;;30.60;1.00;;;;;;10198426;28;86671;-61
2022/06/16 10:38:41;;;;;;;;;;;30.50;1.00;;;;;;10194960;28;84945;-61
2022/06/16 10:43:42;;;;;;;;;;;30.40;1.00;;;;;;10196156;28;86773;-62
2022/06/16 10:48:48;;;;;;;;;;;31.00;1.00;;;;;;10204612;28;84473;-59
2022/06/16 10:54:00;;;;;;;;;;;31.10;1.00;;;;;;10209525;28;84936;-60
2022/06/16 10:59:02;;;;;;;;;;;30.60;1.00;;;;;;10205877;28;84681;-52
2022/06/16 11:04:09;;;;;;;;;;;30.40;1.00;;;;;;10195786;28;84690;-49
2022/06/16 11:09:10;;;;;;;;;;;31.40;1.00;;;;;;10205203;28;84934;-54
2022/06/16 11:14:18;;;;;;;;;;;31.70;1.00;;;;;;10201402;28;84400;-48
2022/06/16 11:19:45;;;;;;;;;;;31.60;1.00;;;;;;10213842;28;85060;-61
2022/06/16 11:24:53;;;;;;;;;;;32.10;1.00;;;;;;10176135;28;84272;-53
2022/06/16 11:29:54;;;;;;;;;;;32.00;1.00;;;;;;10199239;28;86880;-59
2022/06/16 11:34:54;;;;;;;;;;;32.60;1.00;;;;;;10201321;28;84838;-55
2022/06/16 11:40:01;;;;;;;;;;;32.90;1.00;;;;;;10201571;28;84561;-51
2022/06/16 11:45:09;;;;;;;;;;;33.10;99.90;;;;;;10201108;28;84926;-52
2022/06/16 11:50:18;;;;;;;;;;;32.80;99.90;;;;;;10207525;28;85598;-51
2022/06/16 11:55:38;;;;;;;;;;;33.20;99.90;;;;;;10190452;28;85052;-54
2022/06/16 12:00:44;;;;;;;;;;;30.90;99.90;;;;;;10207536;28;85035;-50
2022/06/16 12:06:00;;;;;;;;;;;30.60;99.90;;;;;;10207878;28;84906;-54
2022/06/16 12:11:11;;;;;;;;;;;29.60;99.90;;;;;;10208551;28;84966;-55
2022/06/16 12:16:13;;;;;;;;;;;28.30;1.00;;;;;;10208733;28;84800;-52
2022/06/16 12:21:14;;;;;;;;;;;30.40;1.00;;;;;;10207373;28;84289;-54
2022/06/16 12:26:16;;;;;;;;;;;31.20;99.90;;;;;;10209540;28;84107;-54
2022/06/16 12:31:26;;;;;;;;;;;31.50;99.90;;;;;;10208151;28;84911;-55
2022/06/16 12:36:31;;;;;;;;;;;30.10;99.90;;;;;;10206897;28;86615;-51
2022/06/16 12:41:36;;;;;;;;;;;30.00;99.90;;;;;;10207522;28;84228;-49
2022/06/16 12:46:40;;;;;;;;;;;30.10;99.90;;;;;;10191270;28;85946;-53
2022/06/16 12:51:47;;;;;;;;;;;30.60;99.90;;;;;;10190845;28;85080;-56
2022/06/16 12:56:50;;;;;;;;;;;31.40;99.90;;;;;;10207291;28;84921;-53
2022/06/16 13:01:53;;;;;;;;;;;32.40;99.90;;;;;;10207644;28;84169;-56
2022/06/16 13:06:54;;;;;;;;;;;32.90;99.90;;;;;;10206622;28;86255;-51
2022/06/16 13:12:01;;;;;;;;;;;32.30;99.90;;;;;;10206351;28;84944;-56
2022/06/16 13:17:04;;;;;;;;;;;32.90;99.90;;;;;;10208203;28;84037;-55
2022/06/16 13:22:06;;;;;;;;;;;32.70;99.90;;;;;;10206337;28;84950;-51
2022/06/16 13:27:21;;;;;;;;;;;32.50;99.90;;;;;;10206618;28;86571;-48
2022/06/16 13:32:31;;;;;;;;;;;32.70;99.90;;;;;;10205397;28;84919;-53
2022/06/16 13:37:38;;;;;;;;;;;32.70;99.90;;;;;;10206008;28;83996;-54
2022/06/16 13:42:51;;;;;;;;;;;32.40;99.90;;;;;;10206108;28;84140;-51
2022/06/16 13:48:14;;;;;;;;;;;32.20;99.90;;;;;;10205049;28;84245;-47
2022/06/16 13:53:33;;;;;;;;;;;29.20;99.90;;;;;;10205611;28;84877;-55
2022/06/16 13:58:34;;;;;;;;;;;28.20;99.90;;;;;;10205024;28;84942;-50
2022/06/16 14:03:36;;;;;;;;;;;28.00;99.90;;;;;;10203799;28;84951;-55
2022/06/16 14:08:43;;;;;;;;;;;28.30;99.90;;;;;;10203669;28;86923;-50
2022/06/16 14:13:45;;;;;;;;;;;27.50;99.90;;;;;;10205008;28;84231;-50
2022/06/16 14:19:05;;;;;;;;;;;26.60;99.90;;;;;;10204986;28;84835;-50
2022/06/16 14:24:08;;;;;;;;;;;26.70;99.90;;;;;;10211407;28;84183;-50
2022/06/16 14:29:12;;;;;;;;;;;26.60;99.90;;;;;;10211806;28;84276;-54
2022/06/16 14:34:17;;;;;;;;;;;26.50;99.90;;;;;;10212688;28;84005;-54
2022/06/16 14:39:27;;;;;;;;;;;26.70;99.90;;;;;;10212320;28;84175;-52
2022/06/16 14:44:34;;;;;;;;;;;27.10;99.90;;;;;;10212093;28;84925;-51
2022/06/16 14:49:39;;;;;;;;;;;26.90;99.90;;;;;;10210442;28;85974;-52
2022/06/16 14:54:45;;;;;;;;;;;26.80;99.90;;;;;;10211848;28;84324;-51
2022/06/16 14:59:49;;;;;;;;;;;26.80;99.90;;;;;;10211151;28;84168;-50
2022/06/16 15:04:53;;;;;;;;;;;27.00;99.90;;;;;;10209059;28;86089;-53
2022/06/16 15:09:55;;;;;;;;;;;26.80;99.90;;;;;;10210357;28;84887;-54
2022/06/16 15:14:55;;;;;;;;;;;26.30;99.90;;;;;;10211022;28;84185;-51
2022/06/16 15:19:57;;;;;;;;;;;26.30;99.90;;;;;;10210845;28;85083;-52
2022/06/16 15:24:59;;;;;;;;;;;26.50;99.90;;;;;;10208864;28;84218;-55
2022/06/16 15:30:00;;;;;;;;;;;26.50;99.90;;;;;;10210669;28;84372;-50
2022/06/16 15:40:38;;;;;;;;;;;26.80;99.90;;;;;;10210179;28;84142;-58
2022/06/16 15:45:44;;;;;;;;;;;26.90;99.90;;;;;;10203305;28;84174;-50
2022/06/16 15:50:45;;;;;;;;;;;26.60;99.90;;;;;;10222144;28;84776;-51
2022/06/16 15:55:47;;;;;;;;;;;26.70;99.90;;;;;;10216671;28;84777;-48
2022/06/16 16:00:48;;;;;;;;;;;26.60;99.90;;;;;;10215867;28;85579;-48
2022/06/16 16:05:49;;;;;;;;;;;26.00;99.90;;;;;;10213167;28;84737;-51
2022/06/16 16:10:51;;;;;;;;;;;25.50;99.90;;;;;;10215363;28;84258;-48
2022/06/16 16:15:59;;;;;;;;;;;25.20;99.90;;;;;;10213259;28;84731;-54
2022/06/16 16:21:01;;;;;;;;;;;25.00;99.90;;;;;;10211377;28;84539;-47
2022/06/16 16:26:14;;;;;;;;;;;24.80;99.90;;;;;;10210630;28;86446;-48
2022/06/16 16:31:15;;;;;;;;;;;24.70;99.90;;;;;;10209620;28;84011;-48
2022/06/16 16:36:16;;;;;;;;;;;24.80;99.90;;;;;;10209957;28;85024;-50
2022/06/16 16:46:39;;;;;;;;;;;24.60;99.90;;;;;;10206147;28;85435;-50
2022/06/16 16:51:43;;;;;;;;;;;24.50;99.90;;;;;;10206085;28;84621;-48
2022/06/16 16:56:48;;;;;;;;;;;24.50;99.90;;;;;;10206503;28;84130;-51
2022/06/16 17:01:50;;;;;;;;;;;24.40;99.90;;;;;;10207075;28;84903;-53
2022/06/16 17:06:51;;;;;;;;;;;24.30;99.90;;;;;;10203347;28;85582;-50
2022/06/16 17:11:51;;;;;;;;;;;24.30;1.00;;;;;;10203996;28;84315;-49
2022/06/16 17:16:53;;;;;;;;;;;24.10;1.00;;;;;;10206125;28;85044;-48
2022/06/16 17:21:53;;;;;;;;;;;24.10;1.00;;;;;;10202778;28;84890;-53
2022/06/16 17:26:54;;;;;;;;;;;24.10;1.00;;;;;;10204775;28;84757;-48
2022/06/16 17:31:55;;;;;;;;;;;24.00;1.00;;;;;;10202471;28;84352;-49
2022/06/16 17:36:56;;;;;;;;;;;23.90;1.00;;;;;;10204956;28;84769;-50
2022/06/16 17:41:57;;;;;;;;;;;23.90;1.00;;;;;;10203837;28;85100;-47
2022/06/16 17:46:57;;;;;;;;;;;23.90;1.00;;;;;;10201710;28;85092;-49
2022/06/16 18:02:29;;;;;;;;;;;23.70;1.00;;;;;;10205199;28;85264;-48
2022/06/16 18:07:31;;;;;;;;;;;23.70;1.00;;;;;;10205120;28;86016;-47
2022/06/16 18:12:34;;;;;;;;;;;23.70;1.00;;;;;;10204537;28;85068;-50
2022/06/16 18:17:34;;;;;;;;;;;23.50;1.00;;;;;;10201980;28;85180;-53
2022/06/16 18:22:36;;;;;;;;;;;23.40;1.00;;;;;;10224823;22;84972;-63
2022/06/16 18:27:36;;;;;;;;;;;23.50;1.00;;;;;;10195407;28;85324;-59
2022/06/16 18:32:37;;;;;;;;;;;23.40;1.00;;;;;;10205837;28;84429;-61
2022/06/16 18:37:37;;;;;;;;;;;23.30;1.00;;;;;;10208920;28;84126;-58
2022/06/16 18:42:38;;;;;;;;;;;23.30;1.00;;;;;;10205343;28;85035;-59
2022/06/16 18:47:42;;;;;;;;;;;23.20;1.00;;;;;;10200585;28;84282;-56
2022/06/16 18:52:42;;;;;;;;;;;23.00;1.00;;;;;;10194585;28;84882;-51
2022/06/16 18:57:43;;;;;;;;;;;22.90;1.00;;;;;;10217220;28;84353;-57
2022/06/16 19:02:49;;;;;;;;;;;22.80;1.00;;;;;;10229635;28;84122;-55
2022/06/16 19:07:50;;;;;;;;;;;22.70;1.00;;;;;;10224486;28;84374;-56
2022/06/16 19:12:51;;;;;;;;;;;22.60;1.00;;;;;;10219953;28;85336;-55
2022/06/16 19:17:54;;;;;;;;;;;22.60;1.00;;;;;;10222335;28;84233;-59
2022/06/16 19:22:56;;;;;;;;;;;22.40;1.00;;;;;;10224036;28;84250;-55
2022/06/16 19:27:56;;;;;;;;;;;22.40;1.00;;;;;;10201852;28;84241;-55
2022/06/16 19:32:57;;;;;;;;;;;22.20;1.00;;;;;;10213593;28;87105;-58
2022/06/16 19:37:58;;;;;;;;;;;22.10;1.00;;;;;;10203221;28;84182;-54
2022/06/16 19:43:00;;;;;;;;;;;22.00;1.00;;;;;;10208124;28;84279;-53
2022/06/16 19:53:24;;;;;;;;;;;21.60;99.90;;;;;;10182207;28;84910;-55
2022/06/16 19:58:25;;;;;;;;;;;21.50;99.90;;;;;;10218367;28;84220;-54
2022/06/16 20:03:28;;;;;;;;;;;21.30;99.90;;;;;;10233908;28;84056;-56
2022/06/16 20:08:29;;;;;;;;;;;21.20;1.00;;;;;;10230743;28;85334;-55
2022/06/16 20:13:30;;;;;;;;;;;21.10;1.00;;;;;;10210583;28;85106;-57
2022/06/16 20:18:31;;;;;;;;;;;21.00;1.00;;;;;;10205458;28;85065;-55
2022/06/16 20:23:35;;;;;;;;;;;20.90;63.10;;;;;;10214491;28;84232;-52
2022/06/16 20:28:35;;;;;;;;;;;20.80;99.90;;;;;;10212084;28;84988;-53
2022/06/16 20:33:36;;;;;;;;;;;20.70;99.90;;;;;;10210395;28;84910;-56
2022/06/16 20:38:37;;;;;;;;;;;20.60;1.00;;;;;;10211468;28;84754;-55
2022/06/16 20:43:37;;;;;;;;;;;20.50;1.00;;;;;;10210977;28;84903;-54
2022/06/16 20:48:41;;;;;;;;;;;20.40;1.00;;;;;;10209163;28;86684;-53
2022/06/16 20:53:41;;;;;;;;;;;20.40;99.90;;;;;;10208466;28;87183;-52
2022/06/16 21:04:02;;;;;;;;;;;20.20;1.00;;;;;;10210159;28;84125;-55
2022/06/16 21:09:04;;;;;;;;;;;20.00;1.00;;;;;;10205793;28;85722;-55
2022/06/16 21:14:04;;;;;;;;;;;19.90;99.90;;;;;;10208407;28;86232;-57
2022/06/16 21:19:06;;;;;;;;;;;19.70;1.00;;;;;;10212946;28;85108;-54
2022/06/16 21:24:08;;;;;;;;;;;19.60;1.00;;;;;;10211803;28;84914;-57
2022/06/16 21:29:09;;;;;;;;;;;19.50;1.00;;;;;;10214541;28;84313;-56
2022/06/16 21:34:10;;;;;;;;;;;19.40;99.90;;;;;;10216935;28;84034;-56
2022/06/16 21:39:11;;;;;;;;;;;19.30;1.00;;;;;;10218480;28;84235;-56
2022/06/16 21:44:12;;;;;;;;;;;19.20;1.00;;;;;;10218708;28;84228;-53
2022/06/16 21:49:14;;;;;;;;;;;19.00;99.90;;;;;;10211465;28;85358;-57
2022/06/16 21:54:14;;;;;;;;;;;19.00;1.00;;;;;;10211492;28;84014;-54
2022/06/16 21:59:15;;;;;;;;;;;19.00;1.00;;;;;;10210777;28;84832;-54
2022/06/16 22:04:21;;;;;;;;;;;18.90;1.00;;;;;;10209657;28;84788;-57
2022/06/16 22:09:22;;;;;;;;;;;18.90;99.90;;;;;;10209807;28;85342;-54
2022/06/16 22:19:41;;;;;;;;;;;18.70;2.70;;;;;;10207494;28;84170;-50
2022/06/16 22:24:42;;;;;;;;;;;18.60;99.90;;;;;;10206818;28;84849;-55
2022/06/16 22:29:43;;;;;;;;;;;18.50;1.00;;;;;;10211801;28;84376;-56
2022/06/16 22:34:44;;;;;;;;;;;18.50;1.00;;;;;;10190889;28;86215;-53
2022/06/16 22:45:08;;;;;;;;;;;18.40;99.90;;;;;;10212576;28;84586;-53
2022/06/16 22:50:16;;;;;;;;;;;18.30;1.00;;;;;;10213908;28;85122;-56
2022/06/16 23:00:57;;;;;;;;;;;18.10;1.00;;;;;;10190281;28;84348;-54
2022/06/16 23:05:58;;;;;;;;;;;18.20;1.00;;;;;;10215423;28;85331;-55
2022/06/16 23:10:58;;;;;;;;;;;18.10;63.10;;;;;;10217759;28;85996;-55
2022/06/16 23:15:59;;;;;;;;;;;18.10;99.90;;;;;;10198438;28;84358;-59
2022/06/16 23:21:00;;;;;;;;;;;18.10;99.90;;;;;;10212460;28;85628;-54
2022/06/16 23:26:01;;;;;;;;;;;18.00;1.00;;;;;;10214290;28;84961;-56
2022/06/16 23:31:04;;;;;;;;;;;17.90;1.00;;;;;;10212648;28;84762;-52
2022/06/16 23:36:05;;;;;;;;;;;17.90;1.00;;;;;;10209415;28;84081;-57
2022/06/16 23:41:08;;;;;;;;;;;17.80;25.40;;;;;;10211577;28;84210;-54
2022/06/16 23:46:21;;;;;;;;;;;17.80;99.90;;;;;;10202375;28;85122;-56
2022/06/16 23:51:24;;;;;;;;;;;17.70;99.90;;;;;;10215196;28;84234;-56
2022/06/16 23:56:26;;;;;;;;;;;17.60;99.90;;;;;;10217484;28;84134;-57
